Terminal Aerodrome Forecast
Issued by NWS

Home | Current Version | Previous Version | Text Only | Print | Product List | Glossary On
Versions: 1 2 3 4 5 6 7 8 9 10 11 12 13 14 15 16 17 18
265
FTUS44 KLZK 211740
TAFBPK
TAF
KBPK 211740Z 2118/2218 20005KT P6SM VCTS SCT025CB BKN250
      TEMPO 2118/2120 BKN015CB
     FM220100 VRB03KT P6SM SCT100 SCT250
     FM220900 00000KT 4SM BR SCT250
      TEMPO 2210/2213 1SM BR BKN005
     FM221400 VRB03KT P6SM SCT020 BKN060=

USA.gov is the U.S. government's official web portal to all federal, state and local government web resources and services.